sensor_id;sensor_type;location;lat;lon;timestamp;temperature;humidity
21698;DHT22;11010;49.548;11.926;2022-07-10T00:01:33;17.60;99.90
21698;DHT22;11010;49.548;11.926;2022-07-10T00:04:00;17.50;99.90
21698;DHT22;11010;49.548;11.926;2022-07-10T00:06:27;17.30;99.90
21698;DHT22;11010;49.548;11.926;2022-07-10T00:08:54;17.20;99.90
21698;DHT22;11010;49.548;11.926;2022-07-10T00:11:22;17.30;99.90
21698;DHT22;11010;49.548;11.926;2022-07-10T00:13:49;17.30;99.90
21698;DHT22;11010;49.548;11.926;2022-07-10T00:16:16;17.40;99.90
21698;DHT22;11010;49.548;11.926;2022-07-10T00:18:43;17.60;99.90
21698;DHT22;11010;49.548;11.926;2022-07-10T00:21:11;17.40;99.90
21698;DHT22;11010;49.548;11.926;2022-07-10T00:23:38;17.10;99.90
21698;DHT22;11010;49.548;11.926;2022-07-10T00:26:05;17.00;99.90
21698;DHT22;11010;49.548;11.926;2022-07-10T00:28:32;17.20;99.90
21698;DHT22;11010;49.548;11.926;2022-07-10T00:30:59;17.20;99.90
21698;DHT22;11010;49.548;11.926;2022-07-10T00:33:26;17.40;99.90
21698;DHT22;11010;49.548;11.926;2022-07-10T00:35:54;17.60;99.90
21698;DHT22;11010;49.548;11.926;2022-07-10T00:38:21;17.50;99.90
21698;DHT22;11010;49.548;11.926;2022-07-10T00:40:48;17.40;99.90
21698;DHT22;11010;49.548;11.926;2022-07-10T00:43:15;17.50;99.90
21698;DHT22;11010;49.548;11.926;2022-07-10T00:45:43;17.30;99.90
21698;DHT22;11010;49.548;11.926;2022-07-10T00:48:10;17.10;99.90
21698;DHT22;11010;49.548;11.926;2022-07-10T00:50:38;17.10;99.90
21698;DHT22;11010;49.548;11.926;2022-07-10T00:53:05;17.20;99.90
21698;DHT22;11010;49.548;11.926;2022-07-10T00:55:34;17.40;99.90
21698;DHT22;11010;49.548;11.926;2022-07-10T00:58:06;17.40;99.90
21698;DHT22;11010;49.548;11.926;2022-07-10T01:00:35;17.40;99.90
21698;DHT22;11010;49.548;11.926;2022-07-10T01:03:04;17.00;99.90
21698;DHT22;11010;49.548;11.926;2022-07-10T01:05:32;16.90;99.90
21698;DHT22;11010;49.548;11.926;2022-07-10T01:08:00;17.20;99.90
21698;DHT22;11010;49.548;11.926;2022-07-10T01:10:27;17.00;99.90
21698;DHT22;11010;49.548;11.926;2022-07-10T01:12:55;17.00;99.90
21698;DHT22;11010;49.548;11.926;2022-07-10T01:15:23;16.80;99.90
21698;DHT22;11010;49.548;11.926;2022-07-10T01:17:51;16.70;99.90
21698;DHT22;11010;49.548;11.926;2022-07-10T01:20:20;17.10;99.90
21698;DHT22;11010;49.548;11.926;2022-07-10T01:22:48;17.10;99.90
21698;DHT22;11010;49.548;11.926;2022-07-10T01:25:15;16.80;99.90
21698;DHT22;11010;49.548;11.926;2022-07-10T01:27:44;16.70;99.90
21698;DHT22;11010;49.548;11.926;2022-07-10T01:30:12;16.70;99.90
21698;DHT22;11010;49.548;11.926;2022-07-10T01:32:40;16.60;99.90
21698;DHT22;11010;49.548;11.926;2022-07-10T01:35:08;16.90;99.90
21698;DHT22;11010;49.548;11.926;2022-07-10T01:37:37;17.10;99.90
21698;DHT22;11010;49.548;11.926;2022-07-10T01:40:05;17.10;99.90
21698;DHT22;11010;49.548;11.926;2022-07-10T01:42:33;16.90;99.90
21698;DHT22;11010;49.548;11.926;2022-07-10T01:45:01;16.70;99.90
21698;DHT22;11010;49.548;11.926;2022-07-10T01:47:33;16.60;99.90
21698;DHT22;11010;49.548;11.926;2022-07-10T01:50:01;16.50;99.90
21698;DHT22;11010;49.548;11.926;2022-07-10T01:52:28;16.70;99.90
21698;DHT22;11010;49.548;11.926;2022-07-10T01:54:56;16.90;99.90
21698;DHT22;11010;49.548;11.926;2022-07-10T01:57:24;16.40;99.90
21698;DHT22;11010;49.548;11.926;2022-07-10T01:59:51;16.80;99.90
21698;DHT22;11010;49.548;11.926;2022-07-10T02:02:19;16.90;99.90
21698;DHT22;11010;49.548;11.926;2022-07-10T02:04:47;16.50;99.90
21698;DHT22;11010;49.548;11.926;2022-07-10T02:07:17;16.30;99.90
21698;DHT22;11010;49.548;11.926;2022-07-10T02:09:46;16.50;99.90
21698;DHT22;11010;49.548;11.926;2022-07-10T02:12:14;16.50;99.90
21698;DHT22;11010;49.548;11.926;2022-07-10T02:14:42;16.60;99.90
21698;DHT22;11010;49.548;11.926;2022-07-10T02:17:10;16.70;99.90
21698;DHT22;11010;49.548;11.926;2022-07-10T02:19:38;16.50;99.90
21698;DHT22;11010;49.548;11.926;2022-07-10T02:22:06;16.70;99.90
21698;DHT22;11010;49.548;11.926;2022-07-10T02:24:33;16.60;99.90
21698;DHT22;11010;49.548;11.926;2022-07-10T02:27:01;16.50;99.90
21698;DHT22;11010;49.548;11.926;2022-07-10T02:29:30;16.50;99.90
21698;DHT22;11010;49.548;11.926;2022-07-10T02:31:57;16.70;99.90
21698;DHT22;11010;49.548;11.926;2022-07-10T02:34:25;16.70;99.90
21698;DHT22;11010;49.548;11.926;2022-07-10T02:36:53;16.90;99.90
21698;DHT22;11010;49.548;11.926;2022-07-10T02:39:21;16.70;99.90
21698;DHT22;11010;49.548;11.926;2022-07-10T02:41:50;16.60;99.90
21698;DHT22;11010;49.548;11.926;2022-07-10T02:44:18;16.60;99.90
21698;DHT22;11010;49.548;11.926;2022-07-10T02:46:45;16.50;99.90
21698;DHT22;11010;49.548;11.926;2022-07-10T02:49:13;16.20;99.90
21698;DHT22;11010;49.548;11.926;2022-07-10T02:51:41;16.30;99.90
21698;DHT22;11010;49.548;11.926;2022-07-10T02:54:08;16.50;99.90
21698;DHT22;11010;49.548;11.926;2022-07-10T02:56:36;16.50;99.90
21698;DHT22;11010;49.548;11.926;2022-07-10T02:59:04;16.70;99.90
21698;DHT22;11010;49.548;11.926;2022-07-10T03:01:31;16.70;99.90
21698;DHT22;11010;49.548;11.926;2022-07-10T03:03:59;16.80;99.90
21698;DHT22;11010;49.548;11.926;2022-07-10T03:06:28;16.70;99.90
21698;DHT22;11010;49.548;11.926;2022-07-10T03:08:56;16.70;99.90
21698;DHT22;11010;49.548;11.926;2022-07-10T03:11:23;16.30;99.90
21698;DHT22;11010;49.548;11.926;2022-07-10T03:13:51;16.50;99.90
21698;DHT22;11010;49.548;11.926;2022-07-10T03:16:19;16.70;99.90
21698;DHT22;11010;49.548;11.926;2022-07-10T03:18:47;16.80;99.90
21698;DHT22;11010;49.548;11.926;2022-07-10T03:21:15;16.70;99.90
21698;DHT22;11010;49.548;11.926;2022-07-10T03:23:42;16.70;99.90
21698;DHT22;11010;49.548;11.926;2022-07-10T03:26:10;16.80;99.90
21698;DHT22;11010;49.548;11.926;2022-07-10T03:28:37;16.70;99.90
21698;DHT22;11010;49.548;11.926;2022-07-10T03:31:06;16.70;99.90
21698;DHT22;11010;49.548;11.926;2022-07-10T03:33:33;16.90;99.90
21698;DHT22;11010;49.548;11.926;2022-07-10T03:36:01;17.10;99.90
21698;DHT22;11010;49.548;11.926;2022-07-10T03:38:28;16.90;99.90
21698;DHT22;11010;49.548;11.926;2022-07-10T03:40:56;16.70;99.90
21698;DHT22;11010;49.548;11.926;2022-07-10T03:43:24;16.80;99.90
21698;DHT22;11010;49.548;11.926;2022-07-10T03:45:52;16.70;99.90
21698;DHT22;11010;49.548;11.926;2022-07-10T03:48:19;16.90;99.90
21698;DHT22;11010;49.548;11.926;2022-07-10T03:50:50;16.70;99.90
21698;DHT22;11010;49.548;11.926;2022-07-10T03:53:18;16.90;99.90
21698;DHT22;11010;49.548;11.926;2022-07-10T03:55:46;16.40;99.90
21698;DHT22;11010;49.548;11.926;2022-07-10T03:58:14;16.70;99.90
21698;DHT22;11010;49.548;11.926;2022-07-10T04:00:41;16.80;99.90
21698;DHT22;11010;49.548;11.926;2022-07-10T04:03:10;17.00;99.90
21698;DHT22;11010;49.548;11.926;2022-07-10T04:05:37;17.10;99.90
21698;DHT22;11010;49.548;11.926;2022-07-10T04:08:05;16.40;99.90
21698;DHT22;11010;49.548;11.926;2022-07-10T04:10:33;16.50;99.90
21698;DHT22;11010;49.548;11.926;2022-07-10T04:13:01;16.60;99.90
21698;DHT22;11010;49.548;11.926;2022-07-10T04:15:28;16.80;99.90
21698;DHT22;11010;49.548;11.926;2022-07-10T04:17:56;16.60;99.90
21698;DHT22;11010;49.548;11.926;2022-07-10T04:20:24;16.30;99.90
21698;DHT22;11010;49.548;11.926;2022-07-10T04:22:52;16.30;99.90
21698;DHT22;11010;49.548;11.926;2022-07-10T04:25:19;16.50;99.90
21698;DHT22;11010;49.548;11.926;2022-07-10T04:27:47;16.30;99.90
21698;DHT22;11010;49.548;11.926;2022-07-10T04:30:14;16.50;99.90
21698;DHT22;11010;49.548;11.926;2022-07-10T04:32:42;16.20;99.90
21698;DHT22;11010;49.548;11.926;2022-07-10T04:35:10;16.50;99.90
21698;DHT22;11010;49.548;11.926;2022-07-10T04:37:37;16.70;99.90
21698;DHT22;11010;49.548;11.926;2022-07-10T04:40:06;16.70;99.90
21698;DHT22;11010;49.548;11.926;2022-07-10T04:42:34;16.70;99.90
21698;DHT22;11010;49.548;11.926;2022-07-10T04:45:03;16.80;99.90
21698;DHT22;11010;49.548;11.926;2022-07-10T04:47:30;16.80;99.90
21698;DHT22;11010;49.548;11.926;2022-07-10T04:49:58;16.80;99.90
21698;DHT22;11010;49.548;11.926;2022-07-10T04:52:26;16.90;99.90
21698;DHT22;11010;49.548;11.926;2022-07-10T04:54:54;16.90;99.90
21698;DHT22;11010;49.548;11.926;2022-07-10T04:57:21;16.80;99.90
21698;DHT22;11010;49.548;11.926;2022-07-10T04:59:50;16.70;99.90
21698;DHT22;11010;49.548;11.926;2022-07-10T05:02:17;16.80;99.90
21698;DHT22;11010;49.548;11.926;2022-07-10T05:04:45;16.70;99.90
21698;DHT22;11010;49.548;11.926;2022-07-10T05:07:13;16.70;99.90
21698;DHT22;11010;49.548;11.926;2022-07-10T05:09:41;16.70;99.90
21698;DHT22;11010;49.548;11.926;2022-07-10T05:12:09;16.20;99.90
21698;DHT22;11010;49.548;11.926;2022-07-10T05:14:37;16.50;99.90
21698;DHT22;11010;49.548;11.926;2022-07-10T05:17:04;16.30;99.90
21698;DHT22;11010;49.548;11.926;2022-07-10T05:19:32;16.40;99.90
21698;DHT22;11010;49.548;11.926;2022-07-10T05:21:59;16.20;99.90
21698;DHT22;11010;49.548;11.926;2022-07-10T05:24:27;15.70;99.90
21698;DHT22;11010;49.548;11.926;2022-07-10T05:26:54;15.90;99.90
21698;DHT22;11010;49.548;11.926;2022-07-10T05:29:22;15.70;99.90
21698;DHT22;11010;49.548;11.926;2022-07-10T05:31:50;15.60;99.90
21698;DHT22;11010;49.548;11.926;2022-07-10T05:34:17;15.40;99.90
21698;DHT22;11010;49.548;11.926;2022-07-10T05:36:45;15.90;99.90
21698;DHT22;11010;49.548;11.926;2022-07-10T05:39:13;16.10;99.90
21698;DHT22;11010;49.548;11.926;2022-07-10T05:41:40;16.10;99.90
21698;DHT22;11010;49.548;11.926;2022-07-10T05:44:08;15.90;99.90
21698;DHT22;11010;49.548;11.926;2022-07-10T05:46:35;15.90;99.90
21698;DHT22;11010;49.548;11.926;2022-07-10T05:49:03;16.00;99.90
21698;DHT22;11010;49.548;11.926;2022-07-10T05:51:31;16.10;99.90
21698;DHT22;11010;49.548;11.926;2022-07-10T05:54:10;16.00;99.90
21698;DHT22;11010;49.548;11.926;2022-07-10T05:56:38;15.80;99.90
21698;DHT22;11010;49.548;11.926;2022-07-10T05:59:06;16.00;99.90
21698;DHT22;11010;49.548;11.926;2022-07-10T06:01:34;16.20;99.90
21698;DHT22;11010;49.548;11.926;2022-07-10T06:04:01;15.70;99.90
21698;DHT22;11010;49.548;11.926;2022-07-10T06:06:29;16.00;99.90
21698;DHT22;11010;49.548;11.926;2022-07-10T06:08:57;15.90;99.90
21698;DHT22;11010;49.548;11.926;2022-07-10T06:11:26;15.70;99.90
21698;DHT22;11010;49.548;11.926;2022-07-10T06:13:54;15.60;99.90
21698;DHT22;11010;49.548;11.926;2022-07-10T06:16:21;15.30;99.90
21698;DHT22;11010;49.548;11.926;2022-07-10T06:18:49;15.70;99.90
21698;DHT22;11010;49.548;11.926;2022-07-10T06:21:16;15.80;99.90
21698;DHT22;11010;49.548;11.926;2022-07-10T06:23:49;15.60;99.90
21698;DHT22;11010;49.548;11.926;2022-07-10T06:26:16;15.70;99.90
21698;DHT22;11010;49.548;11.926;2022-07-10T06:28:44;15.60;99.90
21698;DHT22;11010;49.548;11.926;2022-07-10T06:31:11;15.80;99.90
21698;DHT22;11010;49.548;11.926;2022-07-10T06:33:39;15.90;99.90
21698;DHT22;11010;49.548;11.926;2022-07-10T06:36:07;15.90;99.90
21698;DHT22;11010;49.548;11.926;2022-07-10T06:38:35;16.10;99.90
21698;DHT22;11010;49.548;11.926;2022-07-10T06:41:03;15.90;99.90
21698;DHT22;11010;49.548;11.926;2022-07-10T06:43:30;15.80;99.90
21698;DHT22;11010;49.548;11.926;2022-07-10T06:45:58;15.90;99.90
21698;DHT22;11010;49.548;11.926;2022-07-10T06:48:27;15.80;99.90
21698;DHT22;11010;49.548;11.926;2022-07-10T06:50:55;15.90;99.90
21698;DHT22;11010;49.548;11.926;2022-07-10T06:53:22;15.70;99.90
21698;DHT22;11010;49.548;11.926;2022-07-10T06:55:54;16.00;99.90
21698;DHT22;11010;49.548;11.926;2022-07-10T06:58:22;16.20;99.90
21698;DHT22;11010;49.548;11.926;2022-07-10T07:00:49;16.00;99.90
21698;DHT22;11010;49.548;11.926;2022-07-10T07:03:17;16.10;99.90
21698;DHT22;11010;49.548;11.926;2022-07-10T07:05:45;16.10;99.90
21698;DHT22;11010;49.548;11.926;2022-07-10T07:08:12;15.70;99.90
21698;DHT22;11010;49.548;11.926;2022-07-10T07:10:40;15.70;99.90
21698;DHT22;11010;49.548;11.926;2022-07-10T07:13:08;15.80;99.90
21698;DHT22;11010;49.548;11.926;2022-07-10T07:15:36;15.70;99.90
21698;DHT22;11010;49.548;11.926;2022-07-10T07:18:09;15.60;99.90
21698;DHT22;11010;49.548;11.926;2022-07-10T07:20:40;15.50;99.90
21698;DHT22;11010;49.548;11.926;2022-07-10T07:23:26;15.90;99.90
21698;DHT22;11010;49.548;11.926;2022-07-10T07:25:54;15.90;99.90
21698;DHT22;11010;49.548;11.926;2022-07-10T07:28:23;15.80;99.90
21698;DHT22;11010;49.548;11.926;2022-07-10T07:30:50;15.90;99.90
21698;DHT22;11010;49.548;11.926;2022-07-10T07:33:18;15.60;99.90
21698;DHT22;11010;49.548;11.926;2022-07-10T07:35:46;15.90;99.90
21698;DHT22;11010;49.548;11.926;2022-07-10T07:38:13;16.30;99.90
21698;DHT22;11010;49.548;11.926;2022-07-10T07:40:41;15.90;99.90
21698;DHT22;11010;49.548;11.926;2022-07-10T07:43:09;16.20;99.90
21698;DHT22;11010;49.548;11.926;2022-07-10T07:45:37;16.50;99.90
21698;DHT22;11010;49.548;11.926;2022-07-10T07:48:05;16.60;99.90
21698;DHT22;11010;49.548;11.926;2022-07-10T07:50:35;16.60;99.90
21698;DHT22;11010;49.548;11.926;2022-07-10T07:53:04;16.70;99.90
21698;DHT22;11010;49.548;11.926;2022-07-10T07:55:33;16.60;99.90
21698;DHT22;11010;49.548;11.926;2022-07-10T07:58:01;16.70;99.90
21698;DHT22;11010;49.548;11.926;2022-07-10T08:00:31;16.60;99.90
21698;DHT22;11010;49.548;11.926;2022-07-10T08:02:59;16.00;99.90
21698;DHT22;11010;49.548;11.926;2022-07-10T08:05:28;16.20;99.90
21698;DHT22;11010;49.548;11.926;2022-07-10T08:07:58;16.20;99.90
21698;DHT22;11010;49.548;11.926;2022-07-10T08:10:27;16.30;99.90
21698;DHT22;11010;49.548;11.926;2022-07-10T08:12:55;16.50;99.90
21698;DHT22;11010;49.548;11.926;2022-07-10T08:15:23;16.60;99.90
21698;DHT22;11010;49.548;11.926;2022-07-10T08:17:52;16.30;99.90
21698;DHT22;11010;49.548;11.926;2022-07-10T08:20:21;16.50;99.90
21698;DHT22;11010;49.548;11.926;2022-07-10T08:22:49;16.60;99.90
21698;DHT22;11010;49.548;11.926;2022-07-10T08:25:25;16.90;99.90
21698;DHT22;11010;49.548;11.926;2022-07-10T08:27:53;16.90;99.90
21698;DHT22;11010;49.548;11.926;2022-07-10T08:30:21;17.10;99.90
21698;DHT22;11010;49.548;11.926;2022-07-10T08:32:48;16.70;99.90
21698;DHT22;11010;49.548;11.926;2022-07-10T08:35:16;16.70;99.90
21698;DHT22;11010;49.548;11.926;2022-07-10T08:37:44;16.60;99.90
21698;DHT22;11010;49.548;11.926;2022-07-10T08:40:16;16.70;99.90
21698;DHT22;11010;49.548;11.926;2022-07-10T08:42:46;16.70;99.90
21698;DHT22;11010;49.548;11.926;2022-07-10T08:45:14;16.90;99.90
21698;DHT22;11010;49.548;11.926;2022-07-10T08:47:42;16.90;99.90
21698;DHT22;11010;49.548;11.926;2022-07-10T08:50:18;17.00;99.90
21698;DHT22;11010;49.548;11.926;2022-07-10T08:53:01;17.10;99.90
21698;DHT22;11010;49.548;11.926;2022-07-10T08:55:31;17.30;99.90
21698;DHT22;11010;49.548;11.926;2022-07-10T08:57:59;17.40;99.90
21698;DHT22;11010;49.548;11.926;2022-07-10T09:00:28;17.30;99.90
21698;DHT22;11010;49.548;11.926;2022-07-10T09:02:56;17.20;99.90
21698;DHT22;11010;49.548;11.926;2022-07-10T09:05:25;17.40;99.90
21698;DHT22;11010;49.548;11.926;2022-07-10T09:07:53;17.00;99.90
21698;DHT22;11010;49.548;11.926;2022-07-10T09:10:25;16.90;99.90
21698;DHT22;11010;49.548;11.926;2022-07-10T09:12:58;17.20;99.90
21698;DHT22;11010;49.548;11.926;2022-07-10T09:15:28;17.70;99.90
21698;DHT22;11010;49.548;11.926;2022-07-10T09:18:02;18.00;99.90
21698;DHT22;11010;49.548;11.926;2022-07-10T09:20:35;18.00;99.90
21698;DHT22;11010;49.548;11.926;2022-07-10T09:23:22;17.80;99.90
21698;DHT22;11010;49.548;11.926;2022-07-10T09:25:51;17.60;99.90
21698;DHT22;11010;49.548;11.926;2022-07-10T09:28:21;17.80;99.90
21698;DHT22;11010;49.548;11.926;2022-07-10T09:30:49;17.80;99.90
21698;DHT22;11010;49.548;11.926;2022-07-10T09:33:28;17.50;99.90
21698;DHT22;11010;49.548;11.926;2022-07-10T09:36:04;17.10;99.90
21698;DHT22;11010;49.548;11.926;2022-07-10T09:41:13;17.60;99.90
21698;DHT22;11010;49.548;11.926;2022-07-10T09:43:45;18.10;99.90
21698;DHT22;11010;49.548;11.926;2022-07-10T09:46:16;17.90;99.90
21698;DHT22;11010;49.548;11.926;2022-07-10T09:48:44;18.10;99.90
21698;DHT22;11010;49.548;11.926;2022-07-10T09:51:12;18.30;99.90
21698;DHT22;11010;49.548;11.926;2022-07-10T09:53:42;17.90;99.90
21698;DHT22;11010;49.548;11.926;2022-07-10T09:56:12;17.80;99.90
21698;DHT22;11010;49.548;11.926;2022-07-10T09:58:40;17.70;99.90
21698;DHT22;11010;49.548;11.926;2022-07-10T10:01:09;17.80;99.90
21698;DHT22;11010;49.548;11.926;2022-07-10T10:03:38;17.50;99.90
21698;DHT22;11010;49.548;11.926;2022-07-10T10:06:14;17.80;99.90
21698;DHT22;11010;49.548;11.926;2022-07-10T10:08:55;17.70;99.90
21698;DHT22;11010;49.548;11.926;2022-07-10T10:11:26;17.70;99.90
21698;DHT22;11010;49.548;11.926;2022-07-10T10:13:54;18.00;99.90
21698;DHT22;11010;49.548;11.926;2022-07-10T10:16:22;17.70;99.90
21698;DHT22;11010;49.548;11.926;2022-07-10T10:18:50;17.50;99.90
21698;DHT22;11010;49.548;11.926;2022-07-10T10:21:38;17.80;99.90
21698;DHT22;11010;49.548;11.926;2022-07-10T10:24:06;17.80;99.90
21698;DHT22;11010;49.548;11.926;2022-07-10T10:26:34;17.60;99.90
21698;DHT22;11010;49.548;11.926;2022-07-10T10:29:04;17.70;99.90
21698;DHT22;11010;49.548;11.926;2022-07-10T10:31:34;17.70;99.90
21698;DHT22;11010;49.548;11.926;2022-07-10T10:34:02;17.90;99.90
21698;DHT22;11010;49.548;11.926;2022-07-10T10:39:27;17.70;99.90
21698;DHT22;11010;49.548;11.926;2022-07-10T10:41:55;18.00;99.90
21698;DHT22;11010;49.548;11.926;2022-07-10T10:44:23;17.60;99.90
21698;DHT22;11010;49.548;11.926;2022-07-10T10:46:55;17.60;99.90
21698;DHT22;11010;49.548;11.926;2022-07-10T10:49:56;17.60;99.90
21698;DHT22;11010;49.548;11.926;2022-07-10T10:52:24;17.40;99.90
21698;DHT22;11010;49.548;11.926;2022-07-10T11:00:33;17.60;99.90
21698;DHT22;11010;49.548;11.926;2022-07-10T11:03:22;18.10;99.90
21698;DHT22;11010;49.548;11.926;2022-07-10T11:05:51;17.90;99.90
21698;DHT22;11010;49.548;11.926;2022-07-10T11:08:41;17.80;99.90
21698;DHT22;11010;49.548;11.926;2022-07-10T11:13:59;17.50;99.90
21698;DHT22;11010;49.548;11.926;2022-07-10T11:16:27;17.80;99.90
21698;DHT22;11010;49.548;11.926;2022-07-10T11:18:57;17.90;99.90
21698;DHT22;11010;49.548;11.926;2022-07-10T11:21:25;18.10;99.90
21698;DHT22;11010;49.548;11.926;2022-07-10T11:24:10;17.90;99.90
21698;DHT22;11010;49.548;11.926;2022-07-10T11:29:10;17.70;99.90
21698;DHT22;11010;49.548;11.926;2022-07-10T11:31:38;18.40;99.90
21698;DHT22;11010;49.548;11.926;2022-07-10T11:34:11;19.30;99.90
21698;DHT22;11010;49.548;11.926;2022-07-10T11:36:39;19.20;99.90
21698;DHT22;11010;49.548;11.926;2022-07-10T11:39:08;18.50;99.90
21698;DHT22;11010;49.548;11.926;2022-07-10T11:41:46;18.00;99.90
21698;DHT22;11010;49.548;11.926;2022-07-10T11:44:18;18.00;99.90
21698;DHT22;11010;49.548;11.926;2022-07-10T11:46:48;17.80;99.90
21698;DHT22;11010;49.548;11.926;2022-07-10T11:49:16;17.80;99.90
21698;DHT22;11010;49.548;11.926;2022-07-10T11:51:44;17.90;99.90
21698;DHT22;11010;49.548;11.926;2022-07-10T11:54:14;18.00;99.90
21698;DHT22;11010;49.548;11.926;2022-07-10T11:56:47;18.40;99.90
21698;DHT22;11010;49.548;11.926;2022-07-10T11:59:16;18.50;99.90
21698;DHT22;11010;49.548;11.926;2022-07-10T12:01:49;19.40;99.90
21698;DHT22;11010;49.548;11.926;2022-07-10T12:04:21;19.60;99.90
21698;DHT22;11010;49.548;11.926;2022-07-10T12:06:53;19.60;99.90
21698;DHT22;11010;49.548;11.926;2022-07-10T12:09:22;19.60;99.90
21698;DHT22;11010;49.548;11.926;2022-07-10T12:14:29;19.80;99.90
21698;DHT22;11010;49.548;11.926;2022-07-10T12:16:58;19.30;99.90
21698;DHT22;11010;49.548;11.926;2022-07-10T12:19:28;19.40;99.90
21698;DHT22;11010;49.548;11.926;2022-07-10T12:21:58;19.20;99.90
21698;DHT22;11010;49.548;11.926;2022-07-10T12:24:26;19.30;99.90
21698;DHT22;11010;49.548;11.926;2022-07-10T12:26:54;19.50;99.90
21698;DHT22;11010;49.548;11.926;2022-07-10T12:29:28;19.50;99.90
21698;DHT22;11010;49.548;11.926;2022-07-10T12:31:58;19.60;99.90
21698;DHT22;11010;49.548;11.926;2022-07-10T12:34:38;19.90;99.90
21698;DHT22;11010;49.548;11.926;2022-07-10T12:37:11;19.60;99.90
21698;DHT22;11010;49.548;11.926;2022-07-10T12:39:52;19.20;99.90
21698;DHT22;11010;49.548;11.926;2022-07-10T12:42:29;19.50;99.90
21698;DHT22;11010;49.548;11.926;2022-07-10T12:45:29;19.70;99.90
21698;DHT22;11010;49.548;11.926;2022-07-10T12:47:57;19.60;99.90
21698;DHT22;11010;49.548;11.926;2022-07-10T12:50:24;18.80;99.90
21698;DHT22;11010;49.548;11.926;2022-07-10T12:53:12;18.80;99.90
21698;DHT22;11010;49.548;11.926;2022-07-10T12:55:41;18.70;99.90
21698;DHT22;11010;49.548;11.926;2022-07-10T12:58:09;19.00;99.90
21698;DHT22;11010;49.548;11.926;2022-07-10T13:00:46;19.30;99.90
21698;DHT22;11010;49.548;11.926;2022-07-10T13:03:21;19.70;99.90
21698;DHT22;11010;49.548;11.926;2022-07-10T13:05:52;19.90;99.90
21698;DHT22;11010;49.548;11.926;2022-07-10T13:08:22;19.30;99.90
21698;DHT22;11010;49.548;11.926;2022-07-10T13:10:56;19.40;99.90
21698;DHT22;11010;49.548;11.926;2022-07-10T13:13:26;19.30;99.90
21698;DHT22;11010;49.548;11.926;2022-07-10T13:15:53;19.20;99.90
21698;DHT22;11010;49.548;11.926;2022-07-10T13:18:26;19.10;99.90
21698;DHT22;11010;49.548;11.926;2022-07-10T13:20:56;18.50;99.90
21698;DHT22;11010;49.548;11.926;2022-07-10T13:23:29;18.80;99.90
21698;DHT22;11010;49.548;11.926;2022-07-10T13:25:57;19.00;99.90
21698;DHT22;11010;49.548;11.926;2022-07-10T13:28:26;19.30;99.90
21698;DHT22;11010;49.548;11.926;2022-07-10T13:30:54;19.70;99.90
21698;DHT22;11010;49.548;11.926;2022-07-10T13:33:22;19.80;99.90
21698;DHT22;11010;49.548;11.926;2022-07-10T13:35:52;19.50;99.90
21698;DHT22;11010;49.548;11.926;2022-07-10T13:38:20;19.20;99.90
21698;DHT22;11010;49.548;11.926;2022-07-10T13:40:50;19.20;99.90
21698;DHT22;11010;49.548;11.926;2022-07-10T13:43:18;18.90;99.90
21698;DHT22;11010;49.548;11.926;2022-07-10T13:45:48;18.90;99.90
21698;DHT22;11010;49.548;11.926;2022-07-10T13:48:16;19.10;99.90
21698;DHT22;11010;49.548;11.926;2022-07-10T13:50:44;18.70;99.90
21698;DHT22;11010;49.548;11.926;2022-07-10T13:53:15;18.70;99.90
21698;DHT22;11010;49.548;11.926;2022-07-10T13:55:44;18.80;99.90
21698;DHT22;11010;49.548;11.926;2022-07-10T13:58:14;18.90;99.90
21698;DHT22;11010;49.548;11.926;2022-07-10T14:00:42;19.10;99.90
21698;DHT22;11010;49.548;11.926;2022-07-10T14:03:09;18.90;99.90
21698;DHT22;11010;49.548;11.926;2022-07-10T14:05:37;18.90;99.90
21698;DHT22;11010;49.548;11.926;2022-07-10T14:08:05;19.00;99.90
21698;DHT22;11010;49.548;11.926;2022-07-10T14:10:33;18.90;99.90
21698;DHT22;11010;49.548;11.926;2022-07-10T14:13:00;19.40;99.90
21698;DHT22;11010;49.548;11.926;2022-07-10T14:15:35;19.10;99.90
21698;DHT22;11010;49.548;11.926;2022-07-10T14:18:03;19.40;99.90
21698;DHT22;11010;49.548;11.926;2022-07-10T14:20:31;19.10;99.90
21698;DHT22;11010;49.548;11.926;2022-07-10T14:23:19;18.60;99.90
21698;DHT22;11010;49.548;11.926;2022-07-10T14:25:47;18.40;99.90
21698;DHT22;11010;49.548;11.926;2022-07-10T14:28:15;18.70;99.90
21698;DHT22;11010;49.548;11.926;2022-07-10T14:30:43;18.70;99.90
21698;DHT22;11010;49.548;11.926;2022-07-10T14:33:17;18.70;99.90
21698;DHT22;11010;49.548;11.926;2022-07-10T14:35:45;18.60;99.90
21698;DHT22;11010;49.548;11.926;2022-07-10T14:38:13;18.60;99.90
21698;DHT22;11010;49.548;11.926;2022-07-10T14:40:40;18.40;99.90
21698;DHT22;11010;49.548;11.926;2022-07-10T14:43:08;18.40;99.90
21698;DHT22;11010;49.548;11.926;2022-07-10T14:45:36;18.70;99.90
21698;DHT22;11010;49.548;11.926;2022-07-10T14:48:23;18.70;99.90
21698;DHT22;11010;49.548;11.926;2022-07-10T14:50:52;18.70;99.90
21698;DHT22;11010;49.548;11.926;2022-07-10T14:53:20;19.20;99.90
21698;DHT22;11010;49.548;11.926;2022-07-10T14:55:48;19.70;99.90
21698;DHT22;11010;49.548;11.926;2022-07-10T14:58:15;19.60;99.90
21698;DHT22;11010;49.548;11.926;2022-07-10T15:00:43;19.80;99.90
21698;DHT22;11010;49.548;11.926;2022-07-10T15:03:11;19.70;99.90
21698;DHT22;11010;49.548;11.926;2022-07-10T15:05:39;19.30;99.90
21698;DHT22;11010;49.548;11.926;2022-07-10T15:08:07;18.80;99.90
21698;DHT22;11010;49.548;11.926;2022-07-10T15:10:34;18.90;99.90
21698;DHT22;11010;49.548;11.926;2022-07-10T15:13:02;19.00;99.90
21698;DHT22;11010;49.548;11.926;2022-07-10T15:15:32;19.00;99.90
21698;DHT22;11010;49.548;11.926;2022-07-10T15:18:01;19.10;99.90
21698;DHT22;11010;49.548;11.926;2022-07-10T15:20:29;19.40;99.90
21698;DHT22;11010;49.548;11.926;2022-07-10T15:22:57;19.40;99.90
21698;DHT22;11010;49.548;11.926;2022-07-10T15:25:24;19.50;99.90
21698;DHT22;11010;49.548;11.926;2022-07-10T15:27:53;19.50;99.90
21698;DHT22;11010;49.548;11.926;2022-07-10T15:30:20;19.40;99.90
21698;DHT22;11010;49.548;11.926;2022-07-10T15:32:48;19.60;99.90
21698;DHT22;11010;49.548;11.926;2022-07-10T15:35:16;19.60;99.90
21698;DHT22;11010;49.548;11.926;2022-07-10T15:37:44;19.50;99.90
21698;DHT22;11010;49.548;11.926;2022-07-10T15:40:11;19.70;99.90
21698;DHT22;11010;49.548;11.926;2022-07-10T15:42:39;19.40;99.90
21698;DHT22;11010;49.548;11.926;2022-07-10T15:45:07;19.40;99.90
21698;DHT22;11010;49.548;11.926;2022-07-10T15:47:40;18.90;99.90